Time;durP1;ratioP1;P1;durP2;ratioP2;P2;SDS_P1;SDS_P2;PMS_P1;PMS_P2;Temp;Humidity;BMP_temperature;BMP_pressure;BME280_temperature;BME280_humidity;BME280_pressure;Samples;Min_cycle;Max_cycle;Signal;HPM_P1;HPM_P2
2022/07/29 00:00:22;;;;;;;9.93;5.85;;;;;;;27.66;44.90;99551.44;4972865;28;20034;-77
2022/07/29 00:02:47;;;;;;;7.20;5.80;;;;;;;27.49;44.53;99526.66;4972420;28;20029;-77
2022/07/29 00:05:13;;;;;;;7.43;5.32;;;;;;;27.81;44.54;99610.94;4972815;28;20558;-77
2022/07/29 00:07:39;;;;;;;5.90;5.30;;;;;;;27.47;44.68;99550.53;4972780;28;20019;-77
2022/07/29 00:10:05;;;;;;;10.73;5.32;;;;;;;27.68;44.46;99579.09;4972875;28;20035;-77
2022/07/29 00:12:30;;;;;;;6.47;4.90;;;;;;;27.32;44.50;99529.84;4972937;28;20037;-77
2022/07/29 00:14:56;;;;;;;9.00;5.25;;;;;;;27.79;44.21;99590.63;4971287;28;20054;-78
2022/07/29 00:17:23;;;;;;;6.00;4.60;;;;;;;27.47;44.42;99536.97;4972884;28;20030;-78
2022/07/29 00:19:48;;;;;;;7.60;4.97;;;;;;;27.47;44.26;99542.41;4973035;28;20157;-77
2022/07/29 00:22:14;;;;;;;7.88;5.35;;;;;;;27.25;44.53;99502.25;4973012;28;20105;-77
2022/07/29 00:24:39;;;;;;;9.02;6.30;;;;;;;27.51;44.90;99548.91;4973089;28;20026;-77
2022/07/29 00:27:06;;;;;;;11.60;7.93;;;;;;;27.78;45.35;99591.72;4973066;28;20026;-78
2022/07/29 00:29:31;;;;;;;9.73;7.72;;;;;;;27.38;45.66;99525.16;4972932;28;20169;-77
2022/07/29 00:31:56;;;;;;;11.40;9.73;;;;;;;27.58;45.81;99554.78;4972872;28;20447;-78
2022/07/29 00:37:06;;;;;;;11.68;9.50;;;;;;;27.72;46.48;99561.16;4973176;28;20426;-77
2022/07/29 00:39:31;;;;;;;10.48;7.85;;;;;;;27.83;46.28;99578.91;4972860;28;20023;-78
2022/07/29 00:41:56;;;;;;;7.30;5.95;;;;;;;27.27;46.91;99504.69;4972838;28;20019;-77
2022/07/29 00:44:22;;;;;;;6.65;5.00;;;;;;;27.63;46.90;99557.47;4972569;28;20049;-77
2022/07/29 00:46:47;;;;;;;6.32;4.10;;;;;;;27.24;47.26;99500.66;4972612;28;20034;-78
2022/07/29 00:49:13;;;;;;;6.25;5.05;;;;;;;27.61;47.57;99577.84;4955271;28;20026;-78
2022/07/29 00:51:39;;;;;;;7.70;5.68;;;;;;;27.53;47.91;99579.25;4972387;28;20026;-78
2022/07/29 00:54:05;;;;;;;5.43;4.57;;;;;;;26.98;47.89;99491.19;4972482;28;20037;-78
2022/07/29 00:56:32;;;;;;;5.50;5.00;;;;;;;27.45;48.03;99563.56;4972484;28;20033;-77
2022/07/29 00:58:58;;;;;;;6.25;5.40;;;;;;;27.44;48.03;99557.34;4972519;28;20030;-78
2022/07/29 01:01:23;;;;;;;7.28;6.53;;;;;;;27.17;48.13;99513.75;4972215;28;20027;-77
2022/07/29 01:03:49;;;;;;;10.40;5.45;;;;;;;26.86;48.24;99465.25;4972670;28;20562;-78
2022/07/29 01:06:17;;;;;;;7.15;5.20;;;;;;;27.44;47.85;99553.84;4973100;28;20026;-77
2022/07/29 01:08:44;;;;;;;4.68;4.15;;;;;;;27.15;47.61;99524.88;4972758;28;20033;-78
2022/07/29 01:11:10;;;;;;;4.88;4.35;;;;;;;26.99;47.82;99501.72;4971231;28;20399;-78
2022/07/29 01:13:36;;;;;;;6.50;4.85;;;;;;;27.27;48.02;99550.78;4972261;28;20101;-78
2022/07/29 01:16:17;;;;;;;5.32;4.47;;;;;;;27.04;47.88;99523.34;4975721;28;20105;-78
2022/07/29 01:18:47;;;;;;;5.32;4.38;;;;;;;26.98;47.71;99512.84;4975857;28;20026;-78
2022/07/29 01:21:30;;;;;;;5.88;4.78;;;;;;;27.27;47.38;99561.63;4975720;28;20073;-77
2022/07/29 01:24:23;;;;;;;8.10;5.70;;;;;;;27.18;47.60;99561.44;4975683;28;20109;-77
2022/07/29 01:27:30;;;;;;;8.18;5.88;;;;;;;27.02;47.92;99552.66;4974452;28;20023;-77
2022/07/29 01:29:58;;;;;;;7.88;5.47;;;;;;;26.92;47.86;99537.25;4970482;28;20039;-77
2022/07/29 01:32:27;;;;;;;10.68;5.60;;;;;;;26.75;47.55;99520.59;4975805;28;20022;-78
2022/07/29 01:35:01;;;;;;;6.70;5.80;;;;;;;26.31;47.73;99455.69;4974200;28;20027;-78
2022/07/29 01:37:33;;;;;;;7.30;5.05;;;;;;;26.48;47.26;99495.94;4975622;28;20033;-78
2022/07/29 01:40:01;;;;;;;5.15;4.63;;;;;;;26.84;47.37;99569.59;4975306;28;20030;-78
2022/07/29 01:42:43;;;;;;;5.47;4.50;;;;;;;26.70;47.16;99558.56;4975685;28;20086;-77
2022/07/29 01:45:16;;;;;;;6.15;5.18;;;;;;;26.66;47.67;99551.28;4975758;28;20015;-77
2022/07/29 01:47:46;;;;;;;5.80;4.72;;;;;;;26.58;47.63;99553.53;4975649;28;20029;-77
2022/07/29 01:50:15;;;;;;;6.38;5.10;;;;;;;26.42;47.80;99526.84;4975583;28;20036;-77
2022/07/29 01:52:54;;;;;;;6.65;5.28;;;;;;;26.00;47.74;99446.97;4974603;28;20022;-77
2022/07/29 01:55:24;;;;;;;8.98;5.32;;;;;;;26.63;47.34;99543.72;4975781;28;20503;-77
2022/07/29 01:57:51;;;;;;;6.25;4.85;;;;;;;26.30;47.29;99500.09;4957991;28;20019;-78
2022/07/29 02:00:17;;;;;;;6.43;4.75;;;;;;;26.03;46.98;99453.75;4974849;28;20569;-78
2022/07/29 02:02:46;;;;;;;8.80;4.82;;;;;;;26.34;47.26;99497.66;4975070;28;20081;-77
2022/07/29 02:05:15;;;;;;;5.45;4.63;;;;;;;26.56;47.44;99553.00;4975200;28;20031;-77
2022/07/29 02:07:43;;;;;;;7.63;5.10;;;;;;;26.39;47.77;99517.38;4975046;28;20458;-78
2022/07/29 02:10:10;;;;;;;5.80;5.22;;;;;;;26.11;47.56;99486.44;4975049;28;20581;-78
2022/07/29 02:12:37;;;;;;;7.25;4.75;;;;;;;26.51;47.68;99538.69;4975029;28;20031;-77
2022/07/29 02:15:05;;;;;;;7.38;5.07;;;;;;;26.20;47.63;99492.06;4974428;28;20039;-77
2022/07/29 02:17:34;;;;;;;6.38;5.78;;;;;;;26.56;47.38;99536.75;4974746;28;20023;-78
2022/07/29 02:20:03;;;;;;;7.38;4.60;;;;;;;26.55;47.00;99531.63;4975188;28;20026;-77
2022/07/29 02:22:30;;;;;;;6.07;4.47;;;;;;;26.47;47.03;99534.94;4975133;28;20117;-77
2022/07/29 02:24:58;;;;;;;7.13;4.90;;;;;;;26.08;47.31;99488.91;4974947;28;20418;-77
2022/07/29 02:27:27;;;;;;;5.40;4.40;;;;;;;26.36;47.41;99544.22;4957127;28;20018;-77
2022/07/29 02:29:54;;;;;;;7.45;4.70;;;;;;;25.60;47.26;99424.50;4974813;28;20027;-77
2022/07/29 02:32:23;;;;;;;6.82;4.68;;;;;;;25.57;47.60;99441.28;4974556;28;20491;-77
2022/07/29 02:34:51;;;;;;;5.68;5.10;;;;;;;25.70;47.72;99468.81;4974145;28;20161;-78
2022/07/29 02:37:18;;;;;;;5.95;5.28;;;;;;;25.64;48.25;99454.50;4974136;28;20027;-78
2022/07/29 02:39:44;;;;;;;5.50;5.00;;;;;;;25.70;48.04;99480.44;4974180;28;20081;-77
2022/07/29 02:42:14;;;;;;;5.68;4.80;;;;;;;25.78;48.03;99511.50;4974416;28;20050;-77
2022/07/29 02:44:40;;;;;;;6.88;5.03;;;;;;;25.70;48.38;99501.28;4974771;28;20156;-77
2022/07/29 02:47:27;;;;;;;6.68;5.40;;;;;;;25.78;48.48;99530.44;4974390;28;20101;-77
2022/07/29 02:50:31;;;;;;;7.88;5.32;;;;;;;25.58;48.73;99521.31;4974319;28;20018;-78
2022/07/29 02:53:12;;;;;;;9.00;4.93;;;;;;;25.61;49.21;99536.16;4946820;28;20027;-78
2022/07/29 02:55:45;;;;;;;5.03;4.43;;;;;;;24.91;48.77;99430.69;4974269;28;20027;-77
2022/07/29 02:58:31;;;;;;;8.43;4.82;;;;;;;25.51;48.75;99536.19;4972433;28;20033;-78
2022/07/29 03:00:59;;;;;;;7.10;5.60;;;;;;;25.31;49.12;99504.66;4972518;28;20038;-78
2022/07/29 03:03:29;;;;;;;5.72;4.78;;;;;;;25.29;48.90;99513.03;4973966;28;20027;-77
2022/07/29 03:05:57;;;;;;;8.10;5.18;;;;;;;25.32;48.93;99523.28;4974049;28;20458;-77
2022/07/29 03:08:24;;;;;;;6.40;5.20;;;;;;;25.19;49.07;99509.53;4972604;28;20027;-78
2022/07/29 03:10:51;;;;;;;7.25;5.15;;;;;;;24.87;48.87;99475.53;4973642;28;20089;-77
2022/07/29 03:13:18;;;;;;;8.85;5.75;;;;;;;25.12;48.81;99527.91;4973431;28;20038;-77
2022/07/29 03:15:44;;;;;;;7.15;5.40;;;;;;;24.81;48.92;99494.72;4973462;28;20053;-77
2022/07/29 03:18:10;;;;;;;7.25;5.03;;;;;;;24.82;49.21;99494.44;4973746;28;20019;-78
2022/07/29 03:20:37;;;;;;;8.27;5.47;;;;;;;24.94;49.22;99531.97;4973403;28;20031;-78
2022/07/29 03:23:04;;;;;;;6.15;5.10;;;;;;;24.73;49.38;99506.06;4973537;28;20030;-78
2022/07/29 03:25:29;;;;;;;7.50;5.70;;;;;;;24.55;49.59;99472.34;4973476;28;20077;-78
2022/07/29 03:27:56;;;;;;;9.50;5.40;;;;;;;24.54;49.64;99489.63;4973489;28;20018;-77
2022/07/29 03:30:21;;;;;;;7.55;5.47;;;;;;;24.92;49.72;99550.34;4973572;28;20102;-78
2022/07/29 03:32:47;;;;;;;10.00;5.00;;;;;;;24.44;49.38;99476.09;4973415;28;20037;-78
2022/07/29 03:35:13;;;;;;;6.45;5.25;;;;;;;24.59;49.59;99503.13;4971926;28;20049;-77
2022/07/29 03:37:38;;;;;;;8.00;5.75;;;;;;;24.54;49.88;99486.91;4972346;28;20022;-78
2022/07/29 03:40:08;;;;;;;7.60;5.50;;;;;;;24.97;49.63;99561.97;4972964;28;20418;-77
2022/07/29 03:42:36;;;;;;;10.00;5.72;;;;;;;24.93;50.06;99565.47;4955796;28;20023;-76
2022/07/29 03:45:05;;;;;;;6.32;5.32;;;;;;;24.91;50.09;99568.44;4973143;28;20023;-78
2022/07/29 03:47:34;;;;;;;8.38;5.82;;;;;;;24.66;50.22;99531.47;4973528;28;20026;-78
2022/07/29 03:50:05;;;;;;;8.80;5.90;;;;;;;24.93;50.29;99571.69;4971901;28;20027;-79
2022/07/29 03:52:31;;;;;;;7.50;6.32;;;;;;;24.92;50.35;99577.34;4973094;28;20089;-79
2022/07/29 03:54:57;;;;;;;8.65;6.65;;;;;;;24.92;50.41;99575.47;4972806;28;20034;-78
2022/07/29 03:57:25;;;;;;;7.90;5.95;;;;;;;24.53;50.47;99515.00;4975196;28;20019;-77
2022/07/29 03:59:51;;;;;;;7.15;5.72;;;;;;;24.93;50.30;99587.06;4974637;28;20023;-78
2022/07/29 04:02:17;;;;;;;8.40;6.50;;;;;;;24.39;50.26;99512.00;4973428;28;20035;-78
2022/07/29 04:04:43;;;;;;;9.75;6.85;;;;;;;24.56;50.17;99519.84;4973635;28;20031;-78
2022/07/29 04:07:14;;;;;;;9.30;7.03;;;;;;;24.98;50.26;99584.41;4956090;28;20026;-78
2022/07/29 04:09:40;;;;;;;8.63;7.05;;;;;;;24.98;50.25;99587.09;4973629;28;20106;-78
2022/07/29 04:12:06;;;;;;;8.27;6.88;;;;;;;24.97;50.24;99582.75;4973002;28;20166;-78
2022/07/29 04:14:32;;;;;;;8.75;7.80;;;;;;;24.95;50.61;99587.63;4972861;28;20027;-78
2022/07/29 04:16:59;;;;;;;9.77;7.00;;;;;;;24.68;50.36;99540.09;4972905;28;20537;-78
2022/07/29 04:19:24;;;;;;;8.93;7.38;;;;;;;24.98;50.52;99587.09;4972121;28;20415;-78
2022/07/29 04:21:50;;;;;;;8.82;7.35;;;;;;;24.73;50.55;99563.59;4973089;28;20031;-78
2022/07/29 04:24:15;;;;;;;9.63;6.78;;;;;;;24.96;50.47;99583.84;4973206;28;20027;-78
2022/07/29 04:26:41;;;;;;;8.05;7.03;;;;;;;24.99;50.47;99584.13;4971761;28;20018;-78
2022/07/29 04:29:06;;;;;;;8.27;7.10;;;;;;;25.13;49.85;99594.38;4972913;28;20411;-78
2022/07/29 04:31:32;;;;;;;8.27;7.30;;;;;;;24.41;49.72;99482.84;4972729;28;20161;-78
2022/07/29 04:33:57;;;;;;;8.90;7.30;;;;;;;25.00;50.15;99593.03;4972771;28;20143;-77
2022/07/29 04:36:22;;;;;;;10.13;6.45;;;;;;;25.00;49.88;99595.75;4971355;28;20029;-77
2022/07/29 04:38:48;;;;;;;9.20;6.30;;;;;;;24.26;50.03;99480.13;4971288;28;20498;-78
2022/07/29 04:41:13;;;;;;;7.82;5.75;;;;;;;24.84;50.13;99570.59;4972474;28;20082;-78
2022/07/29 04:43:39;;;;;;;7.15;5.55;;;;;;;25.00;49.86;99574.94;4987511;28;20023;-78
2022/07/29 04:46:06;;;;;;;10.07;6.85;;;;;;;24.94;49.74;99553.59;4972587;28;20121;-78
2022/07/29 04:48:31;;;;;;;9.38;6.00;;;;;;;25.28;49.64;99589.78;4972748;28;20029;-78
2022/07/29 04:50:57;;;;;;;10.10;6.05;;;;;;;25.38;49.30;99607.06;4975153;28;20101;-78
2022/07/29 04:53:23;;;;;;;8.23;5.68;;;;;;;25.49;49.41;99605.97;4976315;28;20026;-78
2022/07/29 04:55:48;;;;;;;7.55;5.68;;;;;;;25.31;49.30;99562.22;4976167;28;20113;-78
2022/07/29 04:58:14;;;;;;;9.93;6.60;;;;;;;25.24;49.00;99540.03;4976322;28;20026;-78
2022/07/29 05:00:40;;;;;;;9.27;5.95;;;;;;;25.77;48.86;99616.19;4975834;28;20031;-78
2022/07/29 05:03:05;;;;;;;10.02;5.22;;;;;;;25.35;48.39;99562.47;4975972;28;20120;-78
2022/07/29 05:05:31;;;;;;;8.38;5.35;;;;;;;25.80;48.46;99606.69;4975955;28;20635;-78
2022/07/29 05:07:57;;;;;;;6.63;5.50;;;;;;;25.63;48.24;99591.59;4974548;28;20109;-78
2022/07/29 05:10:22;;;;;;;6.20;4.80;;;;;;;25.95;47.83;99615.56;4974412;28;20015;-78
2022/07/29 05:12:48;;;;;;;7.60;4.72;;;;;;;25.79;47.49;99570.72;4975763;28;20019;-78
2022/07/29 05:15:14;;;;;;;9.93;4.60;;;;;;;26.22;47.53;99630.63;4975723;28;20078;-79
2022/07/29 05:17:39;;;;;;;5.80;4.25;;;;;;;26.16;47.22;99601.97;4975749;28;20030;-78
2022/07/29 05:20:06;;;;;;;7.47;4.63;;;;;;;26.25;46.92;99611.94;4975704;28;20037;-78
2022/07/29 05:22:31;;;;;;;5.72;4.05;;;;;;;25.70;46.90;99515.59;4974357;28;20022;-78
2022/07/29 05:24:57;;;;;;;5.07;4.18;;;;;;;26.44;46.69;99624.84;4975665;28;20027;-78
2022/07/29 05:27:22;;;;;;;10.75;5.28;;;;;;;25.82;46.43;99518.78;4975496;28;20026;-78
2022/07/29 05:29:48;;;;;;;8.55;4.50;;;;;;;26.51;46.51;99638.88;4975703;28;20488;-78
2022/07/29 05:32:13;;;;;;;6.30;4.30;;;;;;;26.29;46.45;99602.16;4975632;28;20023;-79
2022/07/29 05:34:39;;;;;;;6.97;4.22;;;;;;;26.28;46.28;99589.72;4975454;28;20019;-78
2022/07/29 05:37:05;;;;;;;6.07;3.95;;;;;;;26.51;46.30;99625.34;4975216;28;20537;-78
2022/07/29 05:39:30;;;;;;;3.97;3.55;;;;;;;26.49;46.30;99603.16;4973745;28;20010;-79
2022/07/29 05:41:55;;;;;;;6.45;3.70;;;;;;;26.14;45.75;99544.59;4974927;28;20019;-78
2022/07/29 05:44:21;;;;;;;6.18;3.90;;;;;;;26.44;45.68;99576.09;4974425;28;20382;-78
2022/07/29 05:46:46;;;;;;;5.53;3.75;;;;;;;26.82;45.50;99620.53;4975077;28;20517;-78
2022/07/29 05:49:12;;;;;;;7.43;3.88;;;;;;;26.89;44.90;99629.16;4974646;28;20023;-78
2022/07/29 05:51:37;;;;;;;5.75;3.30;;;;;;;26.68;44.32;99595.16;4974854;28;20052;-78
2022/07/29 05:54:03;;;;;;;3.92;3.42;;;;;;;26.77;44.16;99605.13;4974822;28;20049;-78
2022/07/29 05:56:28;;;;;;;7.68;3.90;;;;;;;27.09;44.20;99661.53;4990020;28;20110;-78
2022/07/29 05:58:54;;;;;;;5.47;4.10;;;;;;;26.84;44.04;99604.81;4974972;28;20058;-78
2022/07/29 06:01:20;;;;;;;5.53;3.55;;;;;;;27.22;43.99;99657.34;4987591;28;20022;-78
2022/07/29 06:03:45;;;;;;;7.10;4.07;;;;;;;26.69;44.06;99570.50;4990374;28;20033;-78
2022/07/29 06:06:11;;;;;;;6.55;4.00;;;;;;;27.07;44.19;99624.97;4993912;28;20022;-78
2022/07/29 06:08:37;;;;;;;4.57;4.15;;;;;;;26.65;44.20;99563.22;4993989;28;20018;-78
2022/07/29 06:11:03;;;;;;;4.35;3.95;;;;;;;27.22;44.00;99631.06;4993827;28;20029;-78
2022/07/29 06:13:29;;;;;;;5.65;4.63;;;;;;;27.33;44.11;99631.75;4993641;28;20029;-78
2022/07/29 06:15:54;;;;;;;6.90;4.53;;;;;;;27.48;43.97;99647.88;4993183;28;20050;-78
2022/07/29 06:18:23;;;;;;;5.38;4.72;;;;;;;27.56;43.73;99649.19;4993698;28;20529;-78
2022/07/29 06:20:52;;;;;;;6.35;5.40;;;;;;;27.20;43.69;99591.78;4993830;28;20251;-78
2022/07/29 06:23:19;;;;;;;4.50;4.10;;;;;;;27.39;43.41;99608.13;4993814;28;20026;-78
2022/07/29 06:25:44;;;;;;;5.28;4.30;;;;;;;27.44;43.24;99598.03;4994074;28;21262;-78
2022/07/29 06:28:10;;;;;;;5.28;4.38;;;;;;;27.73;43.17;99640.63;4992756;28;20018;-77
2022/07/29 06:30:36;;;;;;;5.93;4.25;;;;;;;27.63;43.11;99622.56;4992206;28;20145;-79
2022/07/29 06:33:01;;;;;;;6.53;4.55;;;;;;;27.01;43.20;99548.31;4993503;28;20081;-76
2022/07/29 06:35:27;;;;;;;5.65;4.35;;;;;;;27.13;43.47;99531.66;4992161;28;20030;-77
2022/07/29 06:37:53;;;;;;;8.20;4.10;;;;;;;27.80;43.39;99635.66;4994147;28;20023;-77
2022/07/29 06:43:03;;;;;;;5.10;3.72;;;;;;;27.77;42.23;99614.53;4994477;28;20033;-78
2022/07/29 06:45:28;;;;;;;4.20;3.75;;;;;;;27.64;42.19;99583.50;5008803;28;20027;-76
2022/07/29 06:47:54;;;;;;;10.82;6.45;;;;;;;27.64;42.22;99580.78;4993197;28;20124;-77
2022/07/29 06:50:21;;;;;;;5.15;3.70;;;;;;;28.04;41.84;99627.50;4993061;28;20539;-77
2022/07/29 06:52:47;;;;;;;9.25;4.15;;;;;;;27.90;41.45;99604.88;4993257;28;20014;-78
2022/07/29 06:55:12;;;;;;;9.27;4.50;;;;;;;28.03;41.08;99609.59;4992221;28;20023;-78
2022/07/29 06:57:38;;;;;;;12.75;4.78;;;;;;;27.83;41.14;99565.34;4992976;28;20105;-77
2022/07/29 07:00:05;;;;;;;7.10;4.35;;;;;;;27.92;40.90;99561.97;4992548;28;20018;-76
2022/07/29 07:02:30;;;;;;;9.07;4.32;;;;;;;27.94;40.98;99559.78;4992537;28;20569;-77
2022/07/29 07:04:56;;;;;;;6.85;4.45;;;;;;;28.32;40.18;99623.09;4992855;28;20034;-77
2022/07/29 07:07:21;;;;;;;7.15;5.88;;;;;;;28.15;39.62;99571.97;4992318;28;20034;-78
2022/07/29 07:09:46;;;;;;;7.95;5.82;;;;;;;28.62;39.86;99630.00;4992088;28;20022;-79
2022/07/29 07:12:12;;;;;;;5.95;5.03;;;;;;;28.27;39.52;99566.97;4993002;28;20415;-78
2022/07/29 07:14:37;;;;;;;8.85;8.00;;;;;;;28.28;39.45;99555.00;4989677;28;20149;-77
2022/07/29 07:17:03;;;;;;;6.32;4.20;;;;;;;28.71;38.95;99603.78;4988015;28;20036;-77
2022/07/29 07:19:29;;;;;;;5.43;4.47;;;;;;;28.69;38.77;99584.25;4990996;28;20487;-78
2022/07/29 07:21:54;;;;;;;5.05;4.30;;;;;;;28.17;38.54;99482.88;4990106;28;20122;-78
2022/07/29 07:24:20;;;;;;;7.43;4.28;;;;;;;29.10;38.46;99612.41;4988220;28;20421;-77
2022/07/29 07:26:45;;;;;;;6.63;4.72;;;;;;;28.78;38.25;99568.88;4991384;28;20027;-77
2022/07/29 07:29:11;;;;;;;4.20;3.22;;;;;;;29.15;37.51;99597.13;4990871;28;20031;-78
2022/07/29 07:31:37;;;;;;;6.00;4.03;;;;;;;29.08;37.07;99587.44;4969607;28;20018;-79
2022/07/29 07:34:03;;;;;;;4.35;3.95;;;;;;;29.40;36.99;99610.25;4985507;28;20368;-77
2022/07/29 07:36:28;;;;;;;7.43;3.75;;;;;;;29.47;37.15;99616.13;4975460;28;20026;-76
2022/07/29 07:38:54;;;;;;;5.20;3.80;;;;;;;29.30;36.67;99591.41;4971278;28;20031;-78
2022/07/29 07:41:19;;;;;;;7.13;4.30;;;;;;;29.16;36.51;99555.22;4989867;28;20030;-77
2022/07/29 07:43:45;;;;;;;5.07;4.57;;;;;;;29.66;36.46;99600.50;4991173;28;20046;-79
2022/07/29 07:46:10;;;;;;;6.65;4.30;;;;;;;29.73;35.91;99602.84;4992288;28;20026;-76
2022/07/29 07:48:36;;;;;;;7.43;6.47;;;;;;;29.75;36.10;99597.13;4992436;28;20066;-76
2022/07/29 07:51:01;;;;;;;4.10;3.80;;;;;;;29.63;35.62;99573.09;4991858;28;20026;-78
2022/07/29 07:53:27;;;;;;;6.40;5.13;;;;;;;29.83;35.54;99574.63;4992352;28;20037;-78
2022/07/29 07:55:52;;;;;;;5.95;5.35;;;;;;;29.86;35.67;99571.28;4990989;28;20423;-78
2022/07/29 07:58:18;;;;;;;9.15;4.85;;;;;;;30.16;35.61;99594.34;4991016;28;20022;-77
2022/07/29 08:00:43;;;;;;;4.28;3.50;;;;;;;30.21;35.05;99602.41;4992423;28;20113;-77
2022/07/29 08:03:12;;;;;;;10.95;7.55;;;;;;;30.01;34.84;99554.63;4990466;28;20023;-77
2022/07/29 08:05:37;;;;;;;8.90;6.40;;;;;;;30.37;34.35;99595.50;4991486;28;20034;-77
2022/07/29 08:08:03;;;;;;;7.15;5.38;;;;;;;30.05;34.89;99539.31;4987614;28;20108;-78
2022/07/29 08:13:13;;;;;;;4.95;4.05;;;;;;;30.41;34.45;99571.19;4995182;28;20060;-78
2022/07/29 08:15:40;;;;;;;4.63;3.42;;;;;;;30.74;34.35;99599.88;4977607;28;20551;-78
2022/07/29 08:18:05;;;;;;;7.03;5.22;;;;;;;30.57;34.06;99570.53;4975139;28;20113;-78
2022/07/29 08:20:33;;;;;;;6.43;4.68;;;;;;;30.63;33.97;99558.41;4972306;28;20027;-78
2022/07/29 08:22:59;;;;;;;10.48;5.28;;;;;;;30.79;33.87;99566.22;4971884;28;20023;-77
2022/07/29 08:25:24;;;;;;;5.68;4.47;;;;;;;30.85;33.92;99554.88;4981934;28;20035;-77
2022/07/29 08:27:52;;;;;;;5.72;4.85;;;;;;;31.10;33.94;99569.75;4971853;28;20458;-78
2022/07/29 08:30:18;;;;;;;5.40;5.00;;;;;;;31.09;33.47;99561.91;4984803;28;20526;-78
2022/07/29 08:32:43;;;;;;;7.50;4.63;;;;;;;31.39;33.29;99591.13;4983747;28;20027;-78
2022/07/29 08:35:09;;;;;;;5.93;5.32;;;;;;;31.30;33.64;99552.09;4972349;28;20404;-78
2022/07/29 08:37:34;;;;;;;8.10;5.38;;;;;;;31.65;33.20;99580.31;4972283;28;20039;-78
2022/07/29 08:40:00;;;;;;;7.70;5.05;;;;;;;31.71;33.38;99576.34;4969925;28;20022;-78
2022/07/29 08:42:25;;;;;;;7.00;5.07;;;;;;;31.83;33.09;99583.91;4970111;28;20110;-76
2022/07/29 08:44:50;;;;;;;8.27;5.68;;;;;;;31.94;32.92;99577.03;4972062;28;20085;-78
2022/07/29 08:47:16;;;;;;;6.72;4.50;;;;;;;31.49;32.63;99500.81;4972139;28;20037;-78
2022/07/29 08:49:43;;;;;;;5.25;4.20;;;;;;;32.07;32.65;99573.38;4971522;28;20030;-78
2022/07/29 08:52:11;;;;;;;6.72;5.18;;;;;;;32.02;32.44;99548.16;4971874;28;20102;-78
2022/07/29 08:54:40;;;;;;;6.30;4.00;;;;;;;32.18;32.07;99552.03;4986868;28;20027;-78
2022/07/29 08:57:06;;;;;;;4.63;4.03;;;;;;;32.43;31.99;99572.31;4969867;28;20094;-78
2022/07/29 08:59:34;;;;;;;11.13;4.53;;;;;;;31.40;32.01;99400.94;4971884;28;20030;-77
2022/07/29 09:02:00;;;;;;;6.30;4.68;;;;;;;32.29;31.22;99522.47;4971137;28;20035;-77
2022/07/29 09:04:30;;;;;;;8.00;6.05;;;;;;;32.68;31.11;99566.00;4971784;28;20093;-77
2022/07/29 09:07:00;;;;;;;6.72;6.03;;;;;;;32.46;30.91;99515.06;4968922;28;20408;-77
2022/07/29 09:09:26;;;;;;;5.85;4.18;;;;;;;32.81;30.75;99573.28;4971927;28;20086;-76
2022/07/29 09:11:53;;;;;;;7.65;4.65;;;;;;;32.66;30.82;99502.63;4971589;28;20118;-76
2022/07/29 09:14:19;;;;;;;7.15;4.20;;;;;;;32.74;30.46;99501.84;4971909;28;20081;-78
2022/07/29 09:16:51;;;;;;;6.47;4.18;;;;;;;33.26;30.39;99556.41;4989859;28;20034;-76
2022/07/29 09:19:21;;;;;;;10.30;6.18;;;;;;;33.25;30.00;99534.84;4973012;28;20030;-77
2022/07/29 09:21:58;;;;;;;5.65;5.10;;;;;;;33.44;30.38;99514.19;4976412;28;20033;-78
2022/07/29 09:24:34;;;;;;;5.38;4.97;;;;;;;33.29;29.57;99454.50;4990950;28;20035;-78
2022/07/29 09:27:00;;;;;;;9.40;6.75;;;;;;;33.98;29.09;99539.00;4990785;28;20034;-78
2022/07/29 09:29:27;;;;;;;7.75;6.43;;;;;;;33.82;28.95;99485.94;4991315;28;20026;-78
2022/07/29 09:31:54;;;;;;;6.80;6.18;;;;;;;34.11;29.13;99504.25;4990455;28;20498;-77
2022/07/29 09:34:29;;;;;;;5.45;4.85;;;;;;;34.53;28.40;99554.41;4990950;28;20113;-78
2022/07/29 09:36:55;;;;;;;8.38;6.18;;;;;;;34.34;28.29;99502.00;4993238;28;20022;-78
2022/07/29 09:39:34;;;;;;;5.30;4.80;;;;;;;34.39;28.23;99501.78;4991616;28;20034;-77
2022/07/29 09:42:05;;;;;;;6.75;6.05;;;;;;;34.41;27.72;99492.09;4992441;28;20057;-78
2022/07/29 09:44:41;;;;;;;;;;;;;;;34.77;28.17;99536.41;4995229;28;20574;-77
2022/07/29 09:47:06;;;;;;;5.63;5.13;;;;;;;34.63;27.22;99479.94;4994106;28;20283;-77
2022/07/29 09:49:33;;;;;;;4.72;4.20;;;;;;;35.04;26.82;99531.16;4993207;28;20053;-77
2022/07/29 09:52:07;;;;;;;7.90;5.07;;;;;;;35.26;26.54;99527.16;4994452;28;20140;-77
2022/07/29 09:54:36;;;;;;;7.53;6.80;;;;;;;35.34;26.66;99544.69;4991241;28;20046;-78
2022/07/29 09:57:04;;;;;;;7.85;6.65;;;;;;;35.34;27.17;99511.75;4992833;28;20058;-77
2022/07/29 09:59:29;;;;;;;5.43;4.43;;;;;;;35.39;26.53;99477.75;4994218;28;20026;-77
2022/07/29 10:01:56;;;;;;;10.27;4.93;;;;;;;35.90;26.34;99529.25;4993804;28;20093;-77
2022/07/29 10:04:21;;;;;;;6.22;4.85;;;;;;;35.89;25.93;99505.66;4993654;28;20026;-77
2022/07/29 10:07:02;;;;;;;6.50;4.80;;;;;;;36.22;25.68;99530.16;4992333;28;20034;-77
2022/07/29 10:09:28;;;;;;;4.82;4.43;;;;;;;36.24;25.59;99518.81;4993654;28;20026;-78
2022/07/29 10:12:10;;;;;;;4.50;4.07;;;;;;;36.32;25.54;99511.59;4993925;28;20034;-78
2022/07/29 10:14:37;;;;;;;7.25;4.47;;;;;;;36.35;25.22;99497.94;4993828;28;20606;-77
2022/07/29 10:17:04;;;;;;;4.70;3.85;;;;;;;36.77;24.76;99514.06;4993543;28;20060;-77
2022/07/29 10:19:31;;;;;;;6.07;4.95;;;;;;;36.92;24.07;99525.06;4985625;28;20023;-78
2022/07/29 10:22:00;;;;;;;5.82;3.25;;;;;;;36.42;23.71;99445.94;4993249;28;20077;-78
2022/07/29 10:24:28;;;;;;;5.47;3.88;;;;;;;36.78;23.97;99488.94;4993419;28;20088;-77
2022/07/29 10:26:58;;;;;;;6.22;4.05;;;;;;;37.08;24.07;99508.56;4993871;28;20041;-77
2022/07/29 10:29:24;;;;;;;6.78;4.15;;;;;;;36.68;23.98;99431.66;4992875;28;20030;-77
2022/07/29 10:32:08;;;;;;;5.30;3.78;;;;;;;37.27;23.79;99502.38;4979137;28;20061;-76
2022/07/29 10:35:05;;;;;;;5.03;4.32;;;;;;;37.15;23.88;99450.91;4990378;28;20113;-76
2022/07/29 10:37:43;;;;;;;4.63;3.97;;;;;;;37.70;23.21;99490.41;4993572;28;20053;-77
2022/07/29 10:43:28;;;;;;;6.80;3.70;;;;;;;37.85;23.07;99466.69;4993461;28;20710;-78
2022/07/29 10:45:59;;;;;;;4.45;3.97;;;;;;;37.79;22.61;99448.84;4993425;28;20038;-78
2022/07/29 10:48:25;;;;;;;5.45;3.53;;;;;;;37.90;22.77;99465.63;4993026;28;20116;-78
2022/07/29 10:51:00;;;;;;;3.55;3.00;;;;;;;38.04;22.66;99488.00;4993435;28;20478;-78
2022/07/29 10:53:45;;;;;;;3.80;3.50;;;;;;;38.17;22.79;99477.63;4993517;28;20077;-78
2022/07/29 10:56:28;;;;;;;5.05;3.65;;;;;;;38.36;23.12;99477.63;4993536;28;20037;-76
2022/07/29 10:59:18;;;;;;;5.63;3.38;;;;;;;38.40;22.48;99473.75;4993501;28;20480;-76
2022/07/29 11:01:44;;;;;;;3.33;3.03;;;;;;;38.04;22.25;99447.44;4993039;28;20026;-76
2022/07/29 11:04:09;;;;;;;3.72;3.40;;;;;;;38.07;22.53;99418.34;4989758;28;20487;-77
2022/07/29 11:07:07;;;;;;;4.90;3.50;;;;;;;38.54;22.18;99475.97;4992821;28;20034;-76
2022/07/29 11:09:33;;;;;;;5.63;4.57;;;;;;;38.54;22.50;99447.59;4993083;28;20050;-76
2022/07/29 11:11:59;;;;;;;4.30;3.33;;;;;;;38.75;22.62;99465.38;4992542;28;20102;-76
2022/07/29 11:14:54;;;;;;;5.35;3.25;;;;;;;38.91;22.46;99461.69;4990049;28;20142;-77
2022/07/29 11:17:20;;;;;;;5.15;4.55;;;;;;;38.73;22.45;99436.53;4970444;28;20049;-77
2022/07/29 11:19:46;;;;;;;5.28;3.95;;;;;;;38.85;21.80;99463.16;4990239;28;20034;-77
2022/07/29 11:22:30;;;;;;;5.72;3.40;;;;;;;38.82;21.68;99439.06;4992443;28;20101;-77
2022/07/29 11:25:15;;;;;;;3.00;2.78;;;;;;;38.87;21.39;99420.22;4991773;28;20521;-77
2022/07/29 11:27:42;;;;;;;7.43;3.70;;;;;;;38.87;21.40;99433.22;4992927;28;20022;-78
2022/07/29 11:30:09;;;;;;;6.65;3.80;;;;;;;38.82;21.35;99400.41;4987744;28;20038;-75
2022/07/29 11:32:43;;;;;;;3.67;3.33;;;;;;;39.21;21.26;99437.72;4992125;28;20522;-77
2022/07/29 11:35:23;;;;;;;6.85;3.10;;;;;;;39.36;21.23;99436.75;4988862;28;20034;-76
2022/07/29 11:38:22;;;;;;;7.23;3.17;;;;;;;39.64;21.03;99439.16;4991629;28;20030;-76
2022/07/29 11:41:15;;;;;;;5.45;4.13;;;;;;;39.72;21.26;99435.31;4992438;28;20089;-76
2022/07/29 11:43:54;;;;;;;2.75;2.45;;;;;;;39.69;20.10;99427.78;4973278;28;20121;-76
2022/07/29 11:46:41;;;;;;;6.10;3.67;;;;;;;39.59;20.54;99424.88;4991550;28;20030;-78
2022/07/29 11:49:08;;;;;;;4.40;3.92;;;;;;;39.16;21.13;99335.06;4990566;28;20038;-76
2022/07/29 11:51:35;;;;;;;4.32;3.72;;;;;;;39.69;21.13;99426.97;4988799;28;20026;-78